Time;durP1;ratioP1;P1;durP2;ratioP2;P2;SDS_P1;SDS_P2;PMS_P1;PMS_P2;Temp;Humidity;BMP_temperature;BMP_pressure;BME280_temperature;BME280_humidity;BME280_pressure;Samples;Min_cycle;Max_cycle;Signal;HPM_P1;HPM_P2
2023/06/12 00:01:08;;;;;;;7.88;4.30;;;;;;;26.38;37.54;101869.50;4987343;28;20065;-66
2023/06/12 00:03:34;;;;;;;5.65;4.28;;;;;;;26.29;37.92;101858.13;4977664;28;20108;-65
2023/06/12 00:06:00;;;;;;;6.38;4.45;;;;;;;26.36;37.97;101866.19;4979304;28;20030;-67
2023/06/12 00:08:41;;;;;;;8.07;4.32;;;;;;;26.34;38.02;101871.69;4993411;28;20054;-67
2023/06/12 00:11:09;;;;;;;11.13;4.03;;;;;;;26.32;37.60;101868.41;4978079;28;20044;-67
2023/06/12 00:13:38;;;;;;;6.85;4.75;;;;;;;26.28;38.10;101866.34;4990911;28;20043;-66
2023/06/12 00:16:04;;;;;;;8.18;3.92;;;;;;;26.29;37.97;101868.00;4983042;28;20425;-67
2023/06/12 00:18:29;;;;;;;8.93;4.50;;;;;;;26.29;37.88;101859.97;4989113;28;20036;-67
2023/06/12 00:20:56;;;;;;;9.48;4.43;;;;;;;26.27;38.41;101862.84;4974971;28;20043;-65
2023/06/12 00:23:21;;;;;;;6.97;4.20;;;;;;;26.26;38.48;101858.53;4992676;28;20038;-67
2023/06/12 00:25:47;;;;;;;9.75;4.18;;;;;;;26.22;38.44;101857.28;4977245;28;20038;-65
2023/06/12 00:28:12;;;;;;;7.03;4.05;;;;;;;26.23;38.08;101866.13;4991309;28;20456;-66
2023/06/12 00:30:38;;;;;;;9.77;4.28;;;;;;;26.23;38.09;101858.94;4976898;28;22139;-65
2023/06/12 00:33:03;;;;;;;7.00;4.07;;;;;;;26.23;38.42;101860.78;4975319;28;20062;-66
2023/06/12 00:35:29;;;;;;;6.45;3.63;;;;;;;26.19;38.40;101855.81;4977204;28;20420;-65
2023/06/12 00:37:55;;;;;;;6.80;4.28;;;;;;;26.15;38.52;101857.22;4991022;28;20045;-65
2023/06/12 00:40:22;;;;;;;6.68;4.10;;;;;;;26.17;38.50;101857.84;4978616;28;20046;-65
2023/06/12 00:42:50;;;;;;;6.32;4.18;;;;;;;26.16;38.81;101850.03;4984991;28;20388;-66
2023/06/12 00:45:21;;;;;;;8.75;3.83;;;;;;;26.14;38.25;101850.25;4990495;28;20407;-66
2023/06/12 00:47:56;;;;;;;6.90;4.07;;;;;;;26.12;38.79;101846.13;4987377;28;20104;-65
2023/06/12 00:50:28;;;;;;;8.77;3.90;;;;;;;26.10;38.95;101843.66;4954959;28;20052;-65
2023/06/12 00:52:57;;;;;;;5.13;3.33;;;;;;;26.09;38.61;101844.69;4967931;28;20173;-65
2023/06/12 00:55:22;;;;;;;5.70;3.85;;;;;;;26.06;38.92;101841.59;4976002;28;20031;-67
2023/06/12 00:57:48;;;;;;;6.88;3.88;;;;;;;26.04;38.67;101833.78;4987864;28;20659;-66
2023/06/12 01:00:17;;;;;;;6.32;3.80;;;;;;;26.05;38.91;101834.59;4979208;28;20112;-66
2023/06/12 01:02:54;;;;;;;4.45;3.58;;;;;;;26.03;39.13;101836.63;4989244;28;20042;-66
2023/06/12 01:05:32;;;;;;;4.68;3.40;;;;;;;26.03;38.74;101832.13;4973579;28;20412;-65
2023/06/12 01:08:29;;;;;;;6.93;3.90;;;;;;;26.01;38.89;101830.66;4957388;28;20100;-66
2023/06/12 01:11:11;;;;;;;8.00;3.75;;;;;;;25.98;38.85;101831.06;4983250;28;20037;-65
2023/06/12 01:13:38;;;;;;;5.63;3.50;;;;;;;25.96;39.32;101822.44;4955338;28;20046;-65
2023/06/12 01:16:03;;;;;;;6.25;3.80;;;;;;;25.93;38.91;101817.50;4972052;28;20034;-65
2023/06/12 01:18:32;;;;;;;5.60;3.42;;;;;;;25.96;39.30;101823.25;4981506;28;20046;-67
2023/06/12 01:21:05;;;;;;;8.00;3.60;;;;;;;25.94;39.01;101819.94;4968868;28;20030;-67
2023/06/12 01:23:58;;;;;;;5.30;3.58;;;;;;;25.95;38.91;101821.59;4972926;28;20134;-65
2023/06/12 01:26:52;;;;;;;5.13;3.83;;;;;;;25.94;39.31;101824.47;4925586;28;20638;-65
2023/06/12 01:29:45;;;;;;;5.97;3.80;;;;;;;25.91;39.23;101823.03;4988543;28;20089;-65
2023/06/12 01:32:15;;;;;;;5.45;3.50;;;;;;;25.89;39.06;101817.88;4967776;28;20120;-65
2023/06/12 01:35:07;;;;;;;5.18;3.78;;;;;;;25.88;39.28;101820.75;4971947;28;20042;-66
2023/06/12 01:37:44;;;;;;;5.43;3.80;;;;;;;25.87;39.50;101822.59;4952996;28;20037;-65
2023/06/12 01:40:16;;;;;;;5.32;4.03;;;;;;;25.88;39.46;101818.91;4970517;28;20065;-66
2023/06/12 01:42:42;;;;;;;5.35;3.55;;;;;;;25.89;39.40;101819.72;4972685;28;20062;-66
2023/06/12 01:45:08;;;;;;;7.38;4.32;;;;;;;25.82;39.06;101805.50;4971397;28;20045;-66
2023/06/12 01:47:34;;;;;;;4.50;3.35;;;;;;;25.86;39.47;101820.94;4960522;28;20044;-66
2023/06/12 01:50:02;;;;;;;7.00;3.45;;;;;;;25.86;39.43;101820.94;4969000;28;20039;-66
2023/06/12 01:52:28;;;;;;;6.38;3.72;;;;;;;25.85;39.54;101821.13;4959649;28;20154;-66
2023/06/12 01:54:58;;;;;;;5.65;3.47;;;;;;;25.83;39.25;101826.66;4953705;28;20031;-66
2023/06/12 01:57:23;;;;;;;5.60;3.47;;;;;;;25.80;39.35;101821.72;4970502;28;20027;-65
2023/06/12 01:59:49;;;;;;;5.25;3.60;;;;;;;25.83;39.39;101817.81;4984876;28;20046;-66
2023/06/12 02:02:18;;;;;;;6.18;3.17;;;;;;;25.80;39.35;101824.38;4957312;28;20037;-67
2023/06/12 02:04:44;;;;;;;4.80;3.47;;;;;;;25.80;39.06;101821.72;4967656;28;20046;-66
2023/06/12 02:07:10;;;;;;;11.75;3.38;;;;;;;25.77;39.37;101827.44;4959576;28;20102;-66
2023/06/12 02:09:36;;;;;;;4.90;3.30;;;;;;;25.74;39.49;101825.16;4973718;28;20046;-65
2023/06/12 02:12:02;;;;;;;4.78;3.40;;;;;;;25.77;39.25;101831.97;4981219;28;20129;-64
2023/06/12 02:14:28;;;;;;;6.10;3.15;;;;;;;25.74;39.47;101819.00;4961139;28;20046;-66
2023/06/12 02:16:54;;;;;;;6.80;3.88;;;;;;;25.72;39.38;101821.06;4989727;28;20117;-66
2023/06/12 02:19:22;;;;;;;4.57;3.67;;;;;;;25.72;39.26;101826.38;4957319;28;20053;-67
2023/06/12 02:21:49;;;;;;;4.30;3.40;;;;;;;25.73;39.24;101828.84;4973426;28;20042;-66
2023/06/12 02:24:15;;;;;;;6.85;4.15;;;;;;;25.71;39.19;101830.06;4974401;28;20523;-65
2023/06/12 02:26:41;;;;;;;5.78;3.30;;;;;;;25.68;39.74;101833.97;4972177;28;20042;-65
2023/06/12 02:29:09;;;;;;;5.85;3.50;;;;;;;25.67;39.53;101831.44;4975547;28;20141;-66
2023/06/12 02:31:39;;;;;;;4.82;3.10;;;;;;;25.66;39.67;101827.94;4968645;28;20038;-67
2023/06/12 02:34:04;;;;;;;7.38;3.30;;;;;;;25.67;39.61;101832.25;4976326;28;20042;-67
2023/06/12 02:36:30;;;;;;;5.05;3.67;;;;;;;25.58;39.54;101825.44;4954841;28;20041;-67
2023/06/12 02:38:57;;;;;;;4.50;3.30;;;;;;;25.64;39.27;101840.66;4962927;28;20038;-66
2023/06/12 02:41:23;;;;;;;6.70;3.38;;;;;;;25.64;39.36;101837.16;4969483;28;20049;-67
2023/06/12 02:43:49;;;;;;;5.65;3.30;;;;;;;25.60;39.78;101839.41;4960999;28;20034;-66
2023/06/12 02:46:15;;;;;;;6.38;3.63;;;;;;;25.58;39.75;101844.09;4974922;28;20121;-66
2023/06/12 02:48:45;;;;;;;4.30;3.25;;;;;;;25.59;39.39;101838.56;4979923;28;20529;-67
2023/06/12 02:51:11;;;;;;;8.52;4.07;;;;;;;25.57;39.81;101831.78;4967841;28;20042;-66
2023/06/12 02:53:37;;;;;;;6.20;3.95;;;;;;;25.54;39.58;101835.66;4968087;28;20049;-65
2023/06/12 02:56:03;;;;;;;6.22;3.47;;;;;;;25.59;39.64;101846.56;4976049;28;20034;-66
2023/06/12 02:58:28;;;;;;;6.40;3.72;;;;;;;25.57;39.61;101837.94;4929779;28;20081;-65
2023/06/12 03:00:56;;;;;;;6.97;3.38;;;;;;;25.57;39.92;101839.78;4967034;28;20038;-65
2023/06/12 03:03:25;;;;;;;6.57;3.63;;;;;;;25.58;39.62;101841.44;4958696;28;20046;-65
2023/06/12 03:05:51;;;;;;;5.82;3.88;;;;;;;25.52;39.85;101839.56;4980300;28;20062;-65
2023/06/12 03:08:18;;;;;;;4.10;3.30;;;;;;;25.53;39.90;101844.69;4981140;28;20128;-67
2023/06/12 03:10:44;;;;;;;5.78;3.45;;;;;;;25.53;39.98;101841.19;4991776;28;20123;-68
2023/06/12 03:13:12;;;;;;;6.68;3.85;;;;;;;25.55;39.84;101839.16;4986062;28;20041;-65
2023/06/12 03:15:38;;;;;;;5.50;3.20;;;;;;;25.50;39.79;101833.59;4979868;28;20031;-66
2023/06/12 03:18:04;;;;;;;4.72;3.40;;;;;;;25.53;40.05;101843.88;4976047;28;20089;-67
2023/06/12 03:20:33;;;;;;;5.93;3.75;;;;;;;25.50;39.90;101838.94;4974536;28;20101;-67
2023/06/12 03:23:01;;;;;;;7.60;3.63;;;;;;;25.51;39.85;101845.91;4961360;28;20080;-65
2023/06/12 03:25:27;;;;;;;5.80;3.42;;;;;;;25.48;40.21;101843.59;4991917;28;20046;-65
2023/06/12 03:27:53;;;;;;;5.93;3.30;;;;;;;25.49;40.07;101847.91;4961420;28;20038;-67
2023/06/12 03:30:18;;;;;;;8.02;3.90;;;;;;;25.46;40.29;101840.31;4988470;28;20053;-67
2023/06/12 03:32:46;;;;;;;5.95;3.70;;;;;;;25.45;40.03;101844.00;4965082;28;20038;-68
2023/06/12 03:35:12;;;;;;;4.40;3.45;;;;;;;25.41;40.35;101842.72;4980653;28;20270;-67
2023/06/12 03:37:40;;;;;;;6.63;3.45;;;;;;;25.40;40.04;101841.91;4970579;28;20219;-67
2023/06/12 03:40:09;;;;;;;4.53;3.30;;;;;;;25.41;40.08;101846.22;4959959;28;20042;-68
2023/06/12 03:42:37;;;;;;;6.70;3.80;;;;;;;25.40;39.83;101841.91;4957499;28;20031;-67
2023/06/12 03:45:05;;;;;;;6.05;3.40;;;;;;;25.38;39.94;101845.78;4964243;28;20754;-67
2023/06/12 03:47:30;;;;;;;6.82;3.75;;;;;;;25.37;40.00;101844.97;4978827;28;20039;-67
2023/06/12 03:49:56;;;;;;;7.45;3.85;;;;;;;25.36;39.98;101842.50;4972343;28;20043;-67
2023/06/12 03:56:18;;;;;;;8.60;3.80;;;;;;;25.35;39.94;101848.84;4955154;28;20074;-65
2023/06/12 03:58:44;;;;;;;5.00;3.55;;;;;;;25.34;40.36;101853.34;4994546;28;20037;-66
2023/06/12 04:01:10;;;;;;;7.45;3.58;;;;;;;25.34;40.21;101841.88;4978437;28;20064;-66
2023/06/12 04:03:38;;;;;;;5.22;3.42;;;;;;;25.35;40.27;101846.19;4974155;28;20096;-66
2023/06/12 04:06:04;;;;;;;6.47;3.47;;;;;;;25.31;40.30;101840.38;4963220;28;20038;-67
2023/06/12 04:08:29;;;;;;;6.30;3.50;;;;;;;25.34;40.20;101845.34;4979068;28;20529;-68
2023/06/12 04:10:56;;;;;;;4.68;4.05;;;;;;;25.34;39.91;101848.03;4981488;28;20106;-66
2023/06/12 04:13:22;;;;;;;5.55;3.45;;;;;;;25.32;40.24;101849.22;4972699;28;20038;-66
2023/06/12 04:15:49;;;;;;;5.57;3.65;;;;;;;25.32;40.18;101851.91;4956468;28;20042;-67
2023/06/12 04:18:14;;;;;;;6.55;3.60;;;;;;;25.34;40.37;101847.19;4979301;28;20138;-66
2023/06/12 04:20:41;;;;;;;7.65;3.47;;;;;;;25.30;40.03;101852.06;4973988;28;21816;-66
2023/06/12 04:23:11;;;;;;;5.75;3.50;;;;;;;25.29;40.37;101845.91;4960123;28;20148;-66
2023/06/12 04:26:04;;;;;;;6.53;3.58;;;;;;;25.30;40.22;101841.41;4988256;28;20058;-66
2023/06/12 04:28:30;;;;;;;5.80;3.53;;;;;;;25.28;40.21;101836.25;4980691;28;20046;-67
2023/06/12 04:30:55;;;;;;;9.73;3.78;;;;;;;25.31;40.08;101843.03;4957205;28;20034;-67
2023/06/12 04:33:23;;;;;;;4.85;3.45;;;;;;;25.30;40.15;101844.88;4962676;28;20046;-66
2023/06/12 04:35:50;;;;;;;5.03;3.50;;;;;;;25.24;40.47;101840.31;4972704;28;20042;-66
2023/06/12 04:38:16;;;;;;;5.32;3.60;;;;;;;25.25;40.42;101841.16;4958517;28;20046;-65
2023/06/12 04:40:45;;;;;;;4.85;3.42;;;;;;;25.24;40.50;101837.66;4969625;28;20125;-66
2023/06/12 04:43:11;;;;;;;4.55;3.50;;;;;;;25.23;40.47;101851.19;4963216;28;20077;-65
2023/06/12 04:45:41;;;;;;;5.85;3.63;;;;;;;25.24;40.41;101844.84;4967539;28;20042;-65
2023/06/12 04:48:08;;;;;;;6.03;3.47;;;;;;;25.24;40.57;101842.16;4980115;28;20385;-66
2023/06/12 04:50:36;;;;;;;8.15;3.55;;;;;;;25.24;40.12;101848.31;4957808;28;20696;-66
2023/06/12 04:53:02;;;;;;;4.43;3.30;;;;;;;25.23;40.42;101852.00;4965665;28;20110;-67
2023/06/12 04:55:28;;;;;;;4.75;3.60;;;;;;;25.25;40.19;101843.81;4980913;28;20046;-65
2023/06/12 04:57:55;;;;;;;4.07;3.65;;;;;;;25.25;40.60;101854.47;4986484;28;20026;-65
2023/06/12 05:00:23;;;;;;;8.18;3.30;;;;;;;25.21;40.46;101853.22;4960233;28;20038;-65
2023/06/12 05:02:49;;;;;;;7.53;4.00;;;;;;;25.22;40.72;101854.88;4973273;28;20480;-66
2023/06/12 05:05:16;;;;;;;6.18;3.30;;;;;;;25.21;40.36;101863.88;4973901;28;20041;-66
2023/06/12 05:07:45;;;;;;;6.97;3.53;;;;;;;25.19;40.66;101856.09;4986315;28;20449;-66
2023/06/12 05:10:15;;;;;;;7.20;3.22;;;;;;;25.21;40.78;101863.88;4945002;28;20479;-65
2023/06/12 05:12:40;;;;;;;6.60;3.67;;;;;;;25.23;40.57;101859.19;4970494;28;20048;-65
2023/06/12 05:15:07;;;;;;;4.70;3.60;;;;;;;25.24;40.67;101861.66;4958782;28;20495;-65
2023/06/12 05:17:33;;;;;;;8.77;3.70;;;;;;;25.18;40.40;101851.75;4958696;28;20046;-65
2023/06/12 05:20:01;;;;;;;4.93;3.50;;;;;;;25.21;40.85;101855.88;4969026;28;20128;-65
2023/06/12 05:22:27;;;;;;;6.47;3.40;;;;;;;25.20;40.69;101860.41;4961979;28;20039;-67
2023/06/12 05:24:53;;;;;;;5.95;3.58;;;;;;;25.20;40.45;101854.25;4970674;28;20046;-65
2023/06/12 05:27:18;;;;;;;6.68;3.25;;;;;;;25.16;40.84;101856.47;4964011;28;20038;-66
2023/06/12 05:29:44;;;;;;;6.93;3.47;;;;;;;25.18;40.92;101850.94;4970784;28;20034;-66
2023/06/12 05:32:10;;;;;;;5.72;3.58;;;;;;;25.19;40.87;101852.59;4974722;28;20037;-67
2023/06/12 05:34:37;;;;;;;7.07;3.50;;;;;;;25.19;40.95;101839.25;4966975;28;20075;-66
2023/06/12 05:37:03;;;;;;;6.07;3.55;;;;;;;25.15;40.60;101841.50;4961417;28;20066;-66
2023/06/12 05:39:30;;;;;;;7.28;3.55;;;;;;;25.17;40.57;101844.78;4983600;28;20049;-66
2023/06/12 05:41:55;;;;;;;7.80;3.65;;;;;;;25.15;40.80;101849.50;4959207;28;20038;-67
2023/06/12 05:44:22;;;;;;;7.93;3.95;;;;;;;25.16;41.02;101847.66;4969461;28;20042;-67
2023/06/12 05:46:51;;;;;;;5.75;3.70;;;;;;;25.17;40.65;101854.63;4976142;28;20053;-65
2023/06/12 05:49:18;;;;;;;6.15;4.22;;;;;;;25.15;40.92;101849.50;4985506;28;20042;-65
2023/06/12 05:51:43;;;;;;;6.45;3.90;;;;;;;25.15;41.01;101851.34;4955806;28;20040;-65
2023/06/12 05:54:09;;;;;;;6.00;3.55;;;;;;;25.16;40.75;101851.13;4975780;28;20581;-66
2023/06/12 05:56:34;;;;;;;7.47;3.72;;;;;;;25.18;41.04;101853.59;4985880;28;20030;-65
2023/06/12 05:59:00;;;;;;;7.00;4.18;;;;;;;25.14;40.68;101855.84;4955491;28;20415;-66
2023/06/12 06:01:26;;;;;;;7.45;4.07;;;;;;;25.14;41.23;101850.50;4970373;28;20153;-66
2023/06/12 06:03:54;;;;;;;9.47;3.60;;;;;;;25.14;41.34;101861.16;4961147;28;20045;-65
2023/06/12 06:06:20;;;;;;;5.88;3.90;;;;;;;25.15;40.97;101857.47;4970365;28;20046;-66
2023/06/12 06:08:51;;;;;;;5.78;3.72;;;;;;;25.16;41.10;101851.13;4958559;28;20030;-67
2023/06/12 06:11:17;;;;;;;7.65;4.32;;;;;;;25.19;41.22;101853.41;4970107;28;20062;-67
2023/06/12 06:13:46;;;;;;;7.30;3.63;;;;;;;25.18;40.96;101846.44;4957035;28;20045;-65
2023/06/12 06:16:12;;;;;;;8.25;3.97;;;;;;;25.20;41.36;101847.06;4942320;28;20122;-66
2023/06/12 06:18:40;;;;;;;8.05;3.90;;;;;;;25.19;41.41;101855.25;4955576;28;20049;-66
2023/06/12 06:21:06;;;;;;;7.18;4.18;;;;;;;25.22;41.36;101861.03;4940614;28;20042;-66
2023/06/12 06:23:33;;;;;;;8.93;4.38;;;;;;;25.24;41.12;101858.16;4953855;28;20054;-66
2023/06/12 06:25:59;;;;;;;5.82;4.35;;;;;;;25.24;41.26;101858.16;4942063;28;21515;-66
2023/06/12 06:28:26;;;;;;;6.25;3.97;;;;;;;25.24;41.27;101859.00;4953125;28;20604;-66
2023/06/12 06:30:52;;;;;;;6.95;3.45;;;;;;;25.27;41.51;101860.44;4954304;28;20122;-65
2023/06/12 06:33:17;;;;;;;4.65;3.90;;;;;;;25.24;41.85;101856.31;4971317;28;20827;-65
2023/06/12 06:35:44;;;;;;;6.72;4.10;;;;;;;25.27;41.79;101857.78;4956484;28;20043;-65
2023/06/12 06:38:09;;;;;;;5.88;4.18;;;;;;;25.26;41.84;101856.97;4949503;28;20272;-64
2023/06/12 06:40:35;;;;;;;8.00;4.05;;;;;;;25.28;41.80;101867.44;4966371;28;20039;-65
2023/06/12 06:43:01;;;;;;;5.57;4.38;;;;;;;25.29;42.03;101872.56;4950348;28;20050;-67
2023/06/12 06:45:39;;;;;;;10.93;4.13;;;;;;;25.30;41.96;101868.88;4947352;28;20153;-66
2023/06/12 06:48:05;;;;;;;8.10;3.72;;;;;;;25.33;41.84;101867.69;4959728;28;20751;-65
2023/06/12 06:50:31;;;;;;;9.18;4.35;;;;;;;25.35;41.50;101867.50;4951018;28;20041;-67
2023/06/12 06:52:56;;;;;;;8.30;4.57;;;;;;;25.36;41.55;101861.16;4958748;28;20042;-67
2023/06/12 06:55:22;;;;;;;5.95;4.45;;;;;;;25.39;41.83;101858.94;4947089;28;20035;-64
2023/06/12 06:57:50;;;;;;;8.55;4.30;;;;;;;25.42;42.11;101852.38;4942795;28;20027;-66
2023/06/12 07:00:18;;;;;;;10.30;4.10;;;;;;;25.50;41.81;101860.25;4949655;28;20039;-71
2023/06/12 07:02:45;;;;;;;4.68;3.70;;;;;;;25.57;41.42;101853.13;4936934;28;20067;-64
2023/06/12 07:05:13;;;;;;;8.63;4.72;;;;;;;25.62;41.28;101856.03;4953467;28;20448;-64
2023/06/12 07:07:39;;;;;;;6.43;4.13;;;;;;;25.68;41.18;101857.16;4942844;28;20497;-65
2023/06/12 07:10:06;;;;;;;8.07;4.60;;;;;;;25.73;41.13;101865.38;4969986;28;20042;-64
2023/06/12 07:12:33;;;;;;;7.10;4.18;;;;;;;25.77;41.33;101862.13;4953840;28;20061;-64
2023/06/12 07:14:59;;;;;;;5.85;4.10;;;;;;;25.82;41.37;101856.19;4953750;28;20094;-65
2023/06/12 07:17:24;;;;;;;9.02;4.28;;;;;;;25.86;41.05;101860.97;4940784;28;20043;-64
2023/06/12 07:19:50;;;;;;;7.10;4.32;;;;;;;25.89;40.81;101863.25;4952128;28;20076;-64
2023/06/12 07:22:16;;;;;;;8.57;4.10;;;;;;;25.94;41.15;101860.00;4952275;28;20153;-66
2023/06/12 07:24:41;;;;;;;6.47;4.20;;;;;;;25.98;41.09;101858.56;4958964;28;20066;-66
2023/06/12 07:27:07;;;;;;;9.05;4.22;;;;;;;26.00;40.72;101853.84;4957535;28;20046;-65
2023/06/12 07:29:33;;;;;;;7.10;4.57;;;;;;;25.99;41.13;101849.53;4971880;28;20065;-66
2023/06/12 07:31:59;;;;;;;8.65;4.13;;;;;;;26.04;40.81;101852.47;4938652;28;20118;-66
2023/06/12 07:34:25;;;;;;;7.95;4.63;;;;;;;26.10;41.02;101856.19;4931509;28;20038;-65
2023/06/12 07:36:50;;;;;;;8.48;4.63;;;;;;;26.12;41.23;101857.63;4972090;28;20027;-66
2023/06/12 07:39:16;;;;;;;7.55;4.30;;;;;;;26.19;41.21;101863.00;4946615;28;20500;-66
2023/06/12 07:41:42;;;;;;;8.23;4.25;;;;;;;26.20;40.76;101857.47;4974087;28;20039;-66
2023/06/12 07:44:10;;;;;;;11.85;4.88;;;;;;;26.24;41.06;101855.25;4942017;28;20432;-66
2023/06/12 07:46:38;;;;;;;6.93;4.00;;;;;;;26.23;41.05;101850.09;4939950;28;20084;-65
2023/06/12 07:49:04;;;;;;;10.10;5.05;;;;;;;26.29;41.11;101857.31;4941978;28;20043;-65
2023/06/12 07:51:29;;;;;;;11.55;5.85;;;;;;;26.27;40.88;101860.19;4886962;28;20093;-66
2023/06/12 07:53:55;;;;;;;8.35;5.72;;;;;;;26.17;41.00;101852.50;4944774;28;21412;-67
2023/06/12 07:56:22;;;;;;;7.75;5.70;;;;;;;26.16;41.30;101848.19;4912653;28;20590;-66
2023/06/12 07:58:51;;;;;;;10.02;6.07;;;;;;;26.16;41.32;101847.38;4941576;28;20745;-66
2023/06/12 08:01:17;;;;;;;7.63;5.35;;;;;;;26.16;41.72;101853.53;4922105;28;21087;-64
2023/06/12 08:03:43;;;;;;;15.27;6.28;;;;;;;26.19;41.33;101860.31;4940360;28;20129;-64
2023/06/12 08:06:11;;;;;;;10.32;6.20;;;;;;;26.10;40.88;101857.00;4906868;28;21235;-66
2023/06/12 08:08:45;;;;;;;10.00;6.30;;;;;;;26.12;40.29;101856.81;4947349;28;20051;-66
2023/06/12 08:11:11;;;;;;;10.52;5.88;;;;;;;26.20;40.36;101853.97;4918591;28;20984;-65
2023/06/12 08:13:40;;;;;;;10.38;6.22;;;;;;;26.20;39.97;101846.78;4935266;28;20046;-65
2023/06/12 08:16:09;;;;;;;13.27;6.07;;;;;;;26.19;40.41;101853.13;4949727;28;20026;-66
2023/06/12 08:18:35;;;;;;;10.57;5.97;;;;;;;26.20;40.09;101853.97;4951557;28;20038;-64
2023/06/12 08:21:06;;;;;;;9.15;6.25;;;;;;;26.24;40.81;101849.06;4943218;28;20030;-65
2023/06/12 08:23:33;;;;;;;11.32;5.63;;;;;;;26.30;40.60;101851.75;4915538;28;20108;-66
2023/06/12 08:26:08;;;;;;;8.05;5.97;;;;;;;26.33;40.37;101855.88;4967858;28;20120;-66
2023/06/12 08:28:37;;;;;;;9.98;5.32;;;;;;;26.33;40.58;101850.53;4938160;28;20049;-65
2023/06/12 08:31:09;;;;;;;8.13;6.00;;;;;;;26.34;40.38;101847.66;4937394;28;20123;-64
2023/06/12 08:33:35;;;;;;;;;;;;;;;26.15;41.41;101854.56;4946582;28;20030;-65
2023/06/12 08:36:06;;;;;;;9.55;6.18;;;;;;;25.97;41.47;101854.25;4955068;28;20008;-64
2023/06/12 08:38:35;;;;;;;13.48;6.28;;;;;;;25.95;41.54;101847.47;4941871;28;20041;-63
2023/06/12 08:41:03;;;;;;;12.85;5.97;;;;;;;26.23;40.96;101850.09;4898771;28;20155;-61
2023/06/12 08:43:30;;;;;;;10.80;5.57;;;;;;;26.43;40.96;101843.84;4992141;28;20061;-62
2023/06/12 08:46:11;;;;;;;10.60;6.57;;;;;;;26.62;40.78;101841.44;4936018;28;20046;-61
2023/06/12 08:48:40;;;;;;;10.00;5.68;;;;;;;26.71;40.63;101842.91;4886878;28;20034;-65
2023/06/12 08:51:08;;;;;;;9.73;5.45;;;;;;;26.79;40.75;101838.22;4955035;28;20511;-64
2023/06/12 08:53:35;;;;;;;8.95;5.50;;;;;;;26.85;40.82;101836.56;4952925;28;20851;-65
2023/06/12 08:56:02;;;;;;;9.05;5.95;;;;;;;26.92;40.76;101840.06;4958378;28;20105;-63
2023/06/12 08:58:28;;;;;;;10.10;5.75;;;;;;;26.87;40.72;101833.69;4956295;28;20031;-63
2023/06/12 09:01:12;;;;;;;8.77;5.35;;;;;;;27.00;40.37;101833.75;4979877;28;20053;-65
2023/06/12 09:03:43;;;;;;;9.57;5.40;;;;;;;27.02;40.69;101839.72;4956756;28;20444;-64
2023/06/12 09:06:11;;;;;;;9.63;5.95;;;;;;;27.08;40.15;101830.88;4919169;28;21464;-64
2023/06/12 09:08:38;;;;;;;9.32;5.95;;;;;;;26.93;39.95;101832.88;4994969;28;20734;-66
2023/06/12 09:11:06;;;;;;;8.15;6.50;;;;;;;26.86;39.94;101830.19;4929062;28;20061;-66
2023/06/12 09:13:42;;;;;;;10.75;6.35;;;;;;;26.93;40.37;101832.88;4973579;28;20155;-66
2023/06/12 09:16:12;;;;;;;12.88;6.13;;;;;;;27.06;40.38;101839.09;4911875;28;20164;-63
2023/06/12 09:18:48;;;;;;;7.60;5.78;;;;;;;27.15;40.51;101820.22;4989476;28;20153;-65
2023/06/12 09:21:14;;;;;;;9.10;5.47;;;;;;;27.22;39.72;101821.84;4923468;28;20582;-63
2023/06/12 09:23:41;;;;;;;7.30;5.95;;;;;;;27.28;39.90;101825.53;4991680;28;20030;-64
2023/06/12 09:26:15;;;;;;;9.18;5.75;;;;;;;27.31;40.20;101825.16;4941883;28;20081;-64
2023/06/12 09:28:44;;;;;;;7.72;5.50;;;;;;;27.21;39.71;101822.88;4987773;28;20540;-63
2023/06/12 09:31:11;;;;;;;7.63;5.50;;;;;;;27.24;40.05;101822.47;4895997;28;21016;-62
2023/06/12 09:33:40;;;;;;;10.60;6.03;;;;;;;27.35;40.24;101827.22;4995368;28;20031;-65
2023/06/12 09:36:14;;;;;;;8.00;5.20;;;;;;;27.43;40.13;101828.84;4934119;28;20504;-64
2023/06/12 09:38:41;;;;;;;7.00;5.22;;;;;;;27.48;40.11;101821.03;4966478;28;20485;-64
2023/06/12 09:41:11;;;;;;;8.48;5.18;;;;;;;27.51;40.26;101819.78;4927854;28;22616;-64
2023/06/12 09:43:37;;;;;;;7.38;5.18;;;;;;;27.54;40.28;101814.84;4922536;28;20488;-62
2023/06/12 09:46:06;;;;;;;7.70;5.25;;;;;;;27.56;40.17;101818.13;4967643;28;20038;-62
2023/06/12 09:48:36;;;;;;;9.13;5.40;;;;;;;27.60;40.29;101819.34;4944150;28;21201;-64
2023/06/12 09:51:07;;;;;;;8.57;5.40;;;;;;;27.65;40.11;101819.63;4970101;28;20030;-63
2023/06/12 09:53:38;;;;;;;8.52;5.90;;;;;;;27.66;40.33;101823.94;4960865;28;20053;-63
2023/06/12 09:56:08;;;;;;;11.27;6.22;;;;;;;27.67;40.45;101814.03;4962911;28;20817;-63
2023/06/12 09:58:38;;;;;;;6.05;5.00;;;;;;;27.71;40.61;101817.94;4935301;28;20614;-61
2023/06/12 10:01:08;;;;;;;8.90;5.63;;;;;;;27.76;40.11;101820.00;4983472;28;20443;-64
2023/06/12 10:03:41;;;;;;;6.63;4.88;;;;;;;27.77;40.17;101806.41;4943838;28;20050;-66
2023/06/12 10:06:11;;;;;;;7.13;4.85;;;;;;;27.79;40.19;101808.84;4986795;28;20043;-65
2023/06/12 10:08:37;;;;;;;9.65;5.55;;;;;;;27.80;40.55;101810.50;4933703;28;22064;-66
2023/06/12 10:11:04;;;;;;;5.40;4.50;;;;;;;27.79;40.17;101807.00;4989627;28;20053;-65
2023/06/12 10:13:31;;;;;;;6.72;4.65;;;;;;;27.85;40.55;101805.38;4942827;28;20413;-67
2023/06/12 10:15:57;;;;;;;7.43;5.20;;;;;;;27.86;40.62;101796.31;4981856;28;20046;-66
2023/06/12 10:18:24;;;;;;;5.93;5.25;;;;;;;27.87;40.59;101814.00;4953050;28;20055;-65
2023/06/12 10:20:50;;;;;;;8.15;5.50;;;;;;;27.77;40.31;101798.38;4961370;28;20113;-66
2023/06/12 10:23:17;;;;;;;7.43;4.80;;;;;;;27.78;40.30;101802.69;4957227;28;20022;-66
2023/06/12 10:25:44;;;;;;;6.60;4.72;;;;;;;27.76;40.30;101801.25;4958600;28;20042;-64
2023/06/12 10:28:11;;;;;;;6.97;5.10;;;;;;;27.72;40.23;101802.72;4967528;28;20054;-66
2023/06/12 10:30:36;;;;;;;8.25;5.05;;;;;;;27.74;40.27;101804.16;4932124;28;20099;-66
2023/06/12 10:33:13;;;;;;;7.53;5.70;;;;;;;27.71;40.26;101796.53;4972118;28;20281;-66
2023/06/12 10:35:39;;;;;;;7.35;5.70;;;;;;;27.67;40.17;101793.47;4959837;28;20373;-66
2023/06/12 10:38:05;;;;;;;8.00;5.45;;;;;;;27.66;40.33;101794.50;4970906;28;20034;-66
2023/06/12 10:40:31;;;;;;;6.03;5.43;;;;;;;27.64;40.41;101795.72;4946147;28;20048;-66
2023/06/12 10:43:04;;;;;;;7.63;5.28;;;;;;;27.62;40.32;101795.06;4975826;28;20116;-66
2023/06/12 10:45:31;;;;;;;8.18;5.90;;;;;;;27.61;40.25;101785.41;4938380;28;20049;-66
2023/06/12 10:48:02;;;;;;;7.80;5.15;;;;;;;27.57;40.42;101782.31;4991275;28;20152;-66
2023/06/12 10:50:47;;;;;;;6.68;5.38;;;;;;;27.55;40.35;101779.03;4930354;28;20535;-66
2023/06/12 10:53:15;;;;;;;6.95;5.25;;;;;;;27.44;40.26;101760.13;4976582;28;20380;-66
2023/06/12 10:55:44;;;;;;;6.45;5.47;;;;;;;27.51;40.36;101767.13;4970262;28;20041;-70
2023/06/12 10:58:19;;;;;;;10.27;5.70;;;;;;;27.48;40.35;101761.38;4955690;28;20052;-67
2023/06/12 11:00:47;;;;;;;9.20;5.43;;;;;;;27.49;40.34;101765.69;4935135;28;20035;-66
2023/06/12 11:03:16;;;;;;;7.38;5.80;;;;;;;27.49;40.32;101765.69;4954546;28;20555;-66
2023/06/12 11:05:48;;;;;;;7.55;5.53;;;;;;;27.49;40.55;101761.16;4977459;28;20613;-67
2023/06/12 11:08:14;;;;;;;8.60;5.43;;;;;;;27.49;40.40;101763.00;4933906;28;21420;-62
2023/06/12 11:10:44;;;;;;;7.40;5.53;;;;;;;27.48;40.32;101759.50;4977671;28;20798;-66
2023/06/12 11:13:10;;;;;;;7.72;6.07;;;;;;;27.48;40.20;101761.38;4957301;28;20720;-66
2023/06/12 11:15:47;;;;;;;7.05;5.15;;;;;;;27.46;40.52;101761.53;4989276;28;20080;-67
2023/06/12 11:18:13;;;;;;;11.98;6.07;;;;;;;27.47;40.33;101762.38;4958719;28;20038;-66
2023/06/12 11:20:50;;;;;;;8.30;5.38;;;;;;;27.46;40.40;101760.72;4985905;28;20038;-66
2023/06/12 11:23:16;;;;;;;6.68;5.97;;;;;;;27.45;40.49;101767.09;4938596;28;20614;-64
2023/06/12 11:25:46;;;;;;;7.60;5.63;;;;;;;27.44;40.64;101758.25;4962801;28;20061;-66
2023/06/12 11:28:12;;;;;;;7.70;6.07;;;;;;;27.46;40.29;101758.06;4933793;28;20480;-66
2023/06/12 11:30:42;;;;;;;6.22;5.53;;;;;;;27.43;40.29;101756.63;4974517;28;20042;-63
2023/06/12 11:33:10;;;;;;;7.32;5.95;;;;;;;27.43;40.48;101759.28;4954216;28;20467;-63